createdAt,value
2023-01-07T00:01:04.822Z,6.18
2023-01-07T00:03:36.034Z,6.38
2023-01-07T00:06:10.105Z,7.40
2023-01-07T00:08:44.095Z,7.40
2023-01-07T00:11:18.470Z,8.93
2023-01-07T00:13:51.878Z,9.10
2023-01-07T00:16:25.800Z,9.68
2023-01-07T00:18:58.710Z,9.18
2023-01-07T00:21:31.066Z,9.52
2023-01-07T00:24:03.678Z,9.98
2023-01-07T00:26:36.712Z,10.20
2023-01-07T00:29:10.046Z,11.20
2023-01-07T00:31:42.177Z,11.07
2023-01-07T00:34:13.217Z,12.55
2023-01-07T00:36:46.899Z,12.80
2023-01-07T00:39:19.767Z,13.82
2023-01-07T00:44:38.031Z,16.38
2023-01-07T00:47:08.976Z,18.60
2023-01-07T00:49:39.672Z,21.33
2023-01-07T00:52:10.631Z,20.40
2023-01-07T00:54:41.180Z,22.08
2023-01-07T00:57:14.596Z,20.80
2023-01-07T00:59:46.586Z,20.75
2023-01-07T01:02:17.504Z,18.60
2023-01-07T01:04:47.957Z,20.10
2023-01-07T01:07:18.843Z,18.55
2023-01-07T01:09:49.272Z,18.30
2023-01-07T01:12:20.132Z,17.42
2023-01-07T01:14:52.929Z,17.73
2023-01-07T01:17:24.557Z,15.48
2023-01-07T01:19:55.053Z,16.17
2023-01-07T01:22:25.961Z,16.05
2023-01-07T01:24:56.467Z,16.25
2023-01-07T01:27:27.344Z,17.88
2023-01-07T01:29:59.714Z,20.75
2023-01-07T01:32:32.402Z,15.27
2023-01-07T01:35:02.928Z,19.90
2023-01-07T01:37:33.824Z,19.92
2023-01-07T01:40:04.801Z,20.35
2023-01-07T01:42:36.020Z,21.25
2023-01-07T01:45:13.246Z,21.95
2023-01-07T01:47:51.607Z,23.08
2023-01-07T01:50:26.743Z,24.55
2023-01-07T01:53:03.705Z,32.65
2023-01-07T01:55:39.272Z,26.90
2023-01-07T01:58:14.906Z,26.77
2023-01-07T02:00:47.226Z,23.98
2023-01-07T02:03:21.804Z,19.53
2023-01-07T02:05:52.772Z,25.45
2023-01-07T02:08:23.719Z,24.92
2023-01-07T02:11:26.468Z,24.52
2023-01-07T02:14:24.858Z,26.95
2023-01-07T02:17:07.185Z,25.92
2023-01-07T02:20:22.588Z,27.40
2023-01-07T02:23:20.767Z,30.20
2023-01-07T02:26:42.051Z,25.35
2023-01-07T02:30:03.701Z,31.67
2023-01-07T02:32:53.413Z,35.28
2023-01-07T02:35:43.762Z,37.28
2023-01-07T02:38:26.029Z,37.95
2023-01-07T02:41:06.958Z,43.55
2023-01-07T02:43:49.577Z,88.18
2023-01-07T02:46:29.995Z,72.35
2023-01-07T02:49:06.570Z,45.63
2023-01-07T02:51:39.543Z,49.22
2023-01-07T02:54:15.417Z,48.85
2023-01-07T02:57:20.147Z,58.30
2023-01-07T03:00:13.975Z,56.97
2023-01-07T03:03:11.470Z,50.65
2023-01-07T03:05:58.930Z,48.35
2023-01-07T03:08:56.100Z,47.70
2023-01-07T03:11:32.370Z,39.53
2023-01-07T03:14:11.310Z,41.75
2023-01-07T03:16:47.604Z,40.75
2023-01-07T03:19:23.919Z,36.45
2023-01-07T03:21:59.854Z,37.53
2023-01-07T03:24:32.795Z,37.97
2023-01-07T03:27:07.624Z,45.78
2023-01-07T03:29:38.240Z,29.63
2023-01-07T03:32:15.958Z,30.98
2023-01-07T03:34:47.473Z,27.27
2023-01-07T03:37:24.404Z,36.17
2023-01-07T03:39:55.418Z,37.65
2023-01-07T03:42:41.466Z,28.95
2023-01-07T03:45:26.979Z,25.50
2023-01-07T03:48:00.560Z,26.35
2023-01-07T03:50:38.578Z,26.40
2023-01-07T03:53:12.054Z,26.17
2023-01-07T03:55:42.717Z,28.10
2023-01-07T03:58:13.480Z,37.22
2023-01-07T04:00:44.109Z,37.30
2023-01-07T04:03:20.479Z,37.88
2023-01-07T04:05:51.373Z,40.88
2023-01-07T04:08:24.067Z,33.20
2023-01-07T04:10:55.012Z,34.90
2023-01-07T04:13:26.022Z,36.63
2023-01-07T04:15:56.998Z,35.92
2023-01-07T04:18:28.512Z,38.55
2023-01-07T04:20:58.949Z,33.42
2023-01-07T04:23:31.354Z,38.05
2023-01-07T04:26:02.573Z,25.50
2023-01-07T04:28:33.393Z,27.50
2023-01-07T04:31:04.206Z,31.38
2023-01-07T04:33:38.217Z,31.58
2023-01-07T04:36:10.331Z,34.67
2023-01-07T04:38:42.973Z,30.15
2023-01-07T04:41:13.523Z,30.08
2023-01-07T04:43:44.764Z,27.73
2023-01-07T04:46:15.357Z,29.95
2023-01-07T04:48:46.479Z,30.60
2023-01-07T04:51:17.215Z,36.17
2023-01-07T04:53:49.948Z,29.60
2023-01-07T04:56:21.053Z,27.65
2023-01-07T04:58:52.812Z,30.02
2023-01-07T05:01:23.498Z,30.00
2023-01-07T05:03:54.709Z,27.30
2023-01-07T05:06:25.201Z,25.38
2023-01-07T05:08:58.100Z,25.10
2023-01-07T05:11:28.945Z,29.88
2023-01-07T05:14:02.252Z,27.42
2023-01-07T05:16:35.705Z,24.88
2023-01-07T05:19:11.475Z,28.13
2023-01-07T05:21:46.208Z,27.60
2023-01-07T05:24:18.833Z,24.58
2023-01-07T05:26:49.561Z,26.73
2023-01-07T05:29:22.313Z,22.70
2023-01-07T05:31:52.811Z,23.00
2023-01-07T05:34:23.820Z,23.02
2023-01-07T05:36:54.703Z,20.98
2023-01-07T05:39:27.319Z,22.92
2023-01-07T05:41:57.913Z,23.50
2023-01-07T05:44:29.758Z,22.38
2023-01-07T05:47:00.294Z,29.50
2023-01-07T05:49:31.127Z,24.25
2023-01-07T05:52:01.654Z,23.42
2023-01-07T05:54:33.945Z,24.85
2023-01-07T05:57:04.452Z,24.65
2023-01-07T05:59:35.371Z,24.15
2023-01-07T06:02:06.231Z,25.05
2023-01-07T06:04:37.090Z,27.77
2023-01-07T06:07:07.612Z,35.85
2023-01-07T06:09:40.020Z,26.80
2023-01-07T06:12:10.499Z,27.95
2023-01-07T06:14:41.378Z,26.40
2023-01-07T06:17:11.828Z,30.00
2023-01-07T06:19:42.656Z,30.83
2023-01-07T06:22:13.140Z,31.35
2023-01-07T06:24:45.448Z,30.77
2023-01-07T06:27:16.186Z,30.73
2023-01-07T06:29:46.978Z,29.70
2023-01-07T06:32:17.423Z,28.95
2023-01-07T06:34:48.278Z,26.88
2023-01-07T06:37:19.224Z,29.85
2023-01-07T06:39:51.466Z,33.88
2023-01-07T06:42:21.912Z,31.35
2023-01-07T06:44:52.802Z,30.60
2023-01-07T06:47:23.553Z,29.33
2023-01-07T06:49:54.473Z,30.90
2023-01-07T06:52:24.872Z,32.20
2023-01-07T06:54:57.201Z,32.30
2023-01-07T06:57:27.804Z,33.65
2023-01-07T06:59:58.616Z,33.08
2023-01-07T07:02:30.142Z,33.90
2023-01-07T07:05:01.078Z,36.17
2023-01-07T07:07:31.578Z,33.25
2023-01-07T07:10:07.526Z,35.45
2023-01-07T07:12:38.932Z,34.80
2023-01-07T07:15:11.361Z,34.40
2023-01-07T07:17:41.834Z,33.15
2023-01-07T07:20:13.742Z,35.10
2023-01-07T07:22:48.566Z,40.55
2023-01-07T07:25:21.465Z,45.95
2023-01-07T07:27:51.981Z,41.63
2023-01-07T07:30:22.854Z,40.72
2023-01-07T07:33:15.105Z,38.30
2023-01-07T07:35:46.647Z,43.55
2023-01-07T07:38:18.638Z,36.25
2023-01-07T07:40:50.940Z,33.97
2023-01-07T07:43:21.414Z,33.58
2023-01-07T07:45:52.226Z,36.80
2023-01-07T07:48:22.738Z,33.35
2023-01-07T07:50:53.662Z,32.00
2023-01-07T07:53:24.169Z,36.83
2023-01-07T07:55:56.621Z,39.72
2023-01-07T07:58:27.150Z,48.13
2023-01-07T08:00:58.072Z,45.40
2023-01-07T08:03:28.848Z,42.53
2023-01-07T08:06:00.183Z,44.65
2023-01-07T08:08:30.799Z,40.03
2023-01-07T08:11:05.266Z,51.40
2023-01-07T08:13:36.067Z,51.63
2023-01-07T08:16:07.618Z,47.78
2023-01-07T08:18:40.057Z,56.13
2023-01-07T08:21:10.935Z,62.22
2023-01-07T08:23:41.388Z,137.20
2023-01-07T08:26:13.754Z,156.15
2023-01-07T08:28:46.560Z,124.45
2023-01-07T08:31:17.719Z,111.35
2023-01-07T08:33:48.215Z,85.10
2023-01-07T08:36:23.159Z,59.13
2023-01-07T08:38:55.451Z,62.60
2023-01-07T08:41:27.731Z,53.35
2023-01-07T08:43:58.209Z,55.28
2023-01-07T08:46:29.371Z,50.65
2023-01-07T08:49:00.180Z,39.75
2023-01-07T08:51:31.080Z,41.90
2023-01-07T08:54:01.573Z,41.92
2023-01-07T08:56:34.744Z,38.55
2023-01-07T08:59:05.425Z,34.13
2023-01-07T09:01:36.732Z,35.53
2023-01-07T09:04:07.553Z,35.92
2023-01-07T09:06:40.465Z,31.95
2023-01-07T09:09:12.082Z,29.15
2023-01-07T09:11:44.788Z,25.55
2023-01-07T09:14:15.250Z,27.80
2023-01-07T09:16:46.062Z,31.35
2023-01-07T09:19:16.571Z,29.13
2023-01-07T09:21:47.517Z,42.38
2023-01-07T09:24:18.182Z,45.92
2023-01-07T09:26:50.430Z,43.00
2023-01-07T09:29:21.051Z,37.28
2023-01-07T09:31:51.911Z,46.83
2023-01-07T09:34:22.705Z,46.22
2023-01-07T09:36:53.536Z,43.78
2023-01-07T09:39:23.907Z,38.10
2023-01-07T09:42:05.338Z,40.72
2023-01-07T09:45:02.371Z,39.72
2023-01-07T09:47:37.314Z,35.78
2023-01-07T09:50:17.618Z,38.58
2023-01-07T09:52:52.990Z,35.15
2023-01-07T09:55:29.488Z,37.90
2023-01-07T09:58:01.965Z,36.72
2023-01-07T10:00:36.045Z,35.03
2023-01-07T10:03:24.663Z,33.35
2023-01-07T10:06:08.985Z,30.88
2023-01-07T10:08:57.255Z,32.13
2023-01-07T10:11:44.160Z,27.27
2023-01-07T10:14:53.078Z,24.83
2023-01-07T10:17:39.474Z,26.58
2023-01-07T10:20:19.631Z,26.92
2023-01-07T10:22:56.288Z,25.77
2023-01-07T10:25:31.381Z,26.30
2023-01-07T10:28:08.020Z,26.90
2023-01-07T10:30:46.120Z,26.23
2023-01-07T10:33:26.992Z,27.52
2023-01-07T10:36:10.780Z,28.63
2023-01-07T10:38:48.626Z,29.83
2023-01-07T10:41:28.499Z,31.15
2023-01-07T10:44:28.925Z,31.13
2023-01-07T10:47:13.442Z,32.75
2023-01-07T10:50:08.143Z,27.25
2023-01-07T10:52:46.192Z,26.30
2023-01-07T10:55:50.580Z,26.58
2023-01-07T10:58:21.965Z,29.02
2023-01-07T11:00:52.660Z,30.13
2023-01-07T11:03:26.601Z,33.42
2023-01-07T11:06:04.609Z,30.38
2023-01-07T11:08:42.386Z,27.45
2023-01-07T11:11:19.881Z,24.17
2023-01-07T11:13:59.963Z,25.77
2023-01-07T11:16:35.441Z,27.05
2023-01-07T11:19:10.845Z,26.65
2023-01-07T11:21:44.845Z,24.23
2023-01-07T11:24:33.706Z,24.05
2023-01-07T11:27:15.472Z,24.23
2023-01-07T11:29:56.531Z,23.77
2023-01-07T11:32:30.336Z,25.23
2023-01-07T11:35:05.924Z,23.77
2023-01-07T11:37:40.139Z,22.80
2023-01-07T11:40:24.599Z,23.13
2023-01-07T11:42:56.997Z,20.85
2023-01-07T11:45:30.050Z,19.48
2023-01-07T11:48:08.514Z,17.70
2023-01-07T11:50:43.085Z,16.00
2023-01-07T11:53:38.038Z,13.63
2023-01-07T11:56:12.616Z,15.38
2023-01-07T11:58:46.461Z,15.82
2023-01-07T12:01:20.195Z,15.25
2023-01-07T12:06:49.741Z,14.35
2023-01-07T12:09:29.584Z,14.93
2023-01-07T12:12:28.759Z,14.07
2023-01-07T12:15:01.051Z,14.90
2023-01-07T12:17:35.845Z,13.30
2023-01-07T12:20:50.489Z,14.43
2023-01-07T12:23:34.664Z,14.15
2023-01-07T12:26:13.030Z,13.68
2023-01-07T12:29:00.304Z,13.35
2023-01-07T12:31:44.563Z,12.57
2023-01-07T12:34:31.773Z,12.27
2023-01-07T12:37:11.536Z,9.60
2023-01-07T12:39:47.182Z,9.38
2023-01-07T12:42:25.612Z,8.40
2023-01-07T12:45:04.782Z,8.25
2023-01-07T12:47:40.378Z,7.88
2023-01-07T12:50:17.737Z,8.32
2023-01-07T12:52:52.859Z,6.65
2023-01-07T12:55:30.016Z,7.57
2023-01-07T12:58:16.088Z,6.90
2023-01-07T13:00:56.335Z,6.93
2023-01-07T13:03:46.580Z,6.82
2023-01-07T13:06:27.416Z,7.05
2023-01-07T13:09:05.031Z,7.50
2023-01-07T13:12:00.809Z,7.07
2023-01-07T13:14:37.594Z,6.70
2023-01-07T13:17:17.887Z,7.28
2023-01-07T13:19:48.494Z,8.10
2023-01-07T13:22:27.096Z,7.18
2023-01-07T13:25:19.698Z,7.30
2023-01-07T13:28:22.395Z,8.93
2023-01-07T13:31:18.066Z,8.25
2023-01-07T13:33:57.698Z,9.02
2023-01-07T13:36:40.278Z,9.15
2023-01-07T13:39:38.695Z,8.70
2023-01-07T13:42:35.342Z,8.80
2023-01-07T13:45:16.015Z,7.75
2023-01-07T13:47:50.750Z,10.93
2023-01-07T13:50:39.089Z,10.70
2023-01-07T13:53:32.637Z,9.27
2023-01-07T13:59:05.969Z,8.55
2023-01-07T14:02:20.556Z,8.65
2023-01-07T14:05:04.686Z,9.48
2023-01-07T14:07:47.413Z,9.25
2023-01-07T14:10:25.949Z,11.63
2023-01-07T14:13:21.749Z,12.82
2023-01-07T14:16:06.841Z,13.18
2023-01-07T14:19:03.019Z,12.65
2023-01-07T14:22:06.706Z,14.00
2023-01-07T14:25:23.265Z,14.98
2023-01-07T14:28:30.439Z,15.30
2023-01-07T14:31:01.285Z,14.32
2023-01-07T14:33:39.222Z,13.75
2023-01-07T14:36:12.925Z,14.73
2023-01-07T14:41:31.162Z,12.15
2023-01-07T14:44:21.839Z,10.77
2023-01-07T14:46:54.367Z,9.35
2023-01-07T14:50:02.786Z,11.88
2023-01-07T14:53:19.390Z,14.10
2023-01-07T14:56:15.984Z,13.45
2023-01-07T14:59:27.912Z,15.88
2023-01-07T15:02:55.841Z,16.33
2023-01-07T15:06:12.538Z,15.82
2023-01-07T15:09:10.624Z,16.88
2023-01-07T15:12:02.236Z,17.52
2023-01-07T15:14:57.227Z,18.55
2023-01-07T15:17:28.433Z,21.15
2023-01-07T15:19:59.577Z,20.73
2023-01-07T15:22:59.136Z,20.25
2023-01-07T15:25:53.010Z,20.67
2023-01-07T15:28:39.283Z,24.00
2023-01-07T15:31:19.829Z,24.63
2023-01-07T15:34:08.462Z,26.17
2023-01-07T15:36:44.598Z,28.05
2023-01-07T15:39:24.723Z,28.17
2023-01-07T15:41:58.939Z,29.33
2023-01-07T15:44:40.736Z,29.35
2023-01-07T15:47:39.498Z,32.88
2023-01-07T15:50:31.924Z,34.65
2023-01-07T15:53:05.046Z,40.80
2023-01-07T15:55:40.828Z,42.63
2023-01-07T15:58:18.266Z,37.05
2023-01-07T16:00:54.005Z,33.00
2023-01-07T16:03:25.186Z,34.65
2023-01-07T16:05:56.285Z,37.35
2023-01-07T16:08:30.929Z,38.78
2023-01-07T16:11:04.788Z,37.47
2023-01-07T16:16:08.399Z,36.80
2023-01-07T16:18:39.171Z,35.33
2023-01-07T16:21:15.644Z,36.35
2023-01-07T16:23:48.177Z,34.60
2023-01-07T16:26:23.024Z,36.20
2023-01-07T16:29:00.701Z,35.50
2023-01-07T16:31:32.600Z,38.97
2023-01-07T16:34:17.617Z,39.92
2023-01-07T16:36:48.541Z,39.17
2023-01-07T16:39:24.825Z,38.35
2023-01-07T16:42:16.299Z,39.00
2023-01-07T16:45:06.325Z,39.28
2023-01-07T16:47:37.051Z,36.85
2023-01-07T16:50:37.116Z,39.92
2023-01-07T16:53:25.732Z,37.85
2023-01-07T16:56:13.155Z,37.90
2023-01-07T16:58:50.195Z,38.13
2023-01-07T17:01:31.703Z,33.72
2023-01-07T17:04:09.254Z,37.15
2023-01-07T17:06:43.704Z,34.17
2023-01-07T17:09:24.410Z,34.70
2023-01-07T17:11:56.438Z,32.83
2023-01-07T17:14:49.324Z,34.95
2023-01-07T17:17:41.826Z,34.45
2023-01-07T17:20:22.542Z,36.72
2023-01-07T17:22:53.117Z,37.75
2023-01-07T17:25:28.288Z,38.17
2023-01-07T17:28:02.837Z,38.28
2023-01-07T17:30:36.498Z,37.85
2023-01-07T17:35:47.182Z,37.95
2023-01-07T17:38:19.090Z,36.92
2023-01-07T17:40:51.177Z,38.83
2023-01-07T17:43:36.983Z,37.92
2023-01-07T17:46:12.159Z,39.75
2023-01-07T17:48:44.132Z,42.10
2023-01-07T17:51:14.963Z,39.33
2023-01-07T17:53:49.180Z,41.55
2023-01-07T17:56:20.301Z,40.45
2023-01-07T17:58:51.272Z,42.33
2023-01-07T18:01:23.962Z,43.38
2023-01-07T18:03:56.658Z,44.72
2023-01-07T18:06:30.390Z,45.25
2023-01-07T18:09:00.924Z,41.80
2023-01-07T18:12:00.401Z,41.83
2023-01-07T18:14:32.641Z,39.97
2023-01-07T18:17:03.612Z,33.97
2023-01-07T18:19:36.288Z,40.90
2023-01-07T18:22:07.190Z,41.72
2023-01-07T18:24:37.749Z,42.78
2023-01-07T18:27:08.678Z,44.35
2023-01-07T18:29:39.302Z,42.20
2023-01-07T18:32:10.955Z,44.72
2023-01-07T18:34:43.257Z,43.30
2023-01-07T18:37:15.077Z,44.88
2023-01-07T18:39:45.626Z,43.80
2023-01-07T18:42:17.043Z,43.58
2023-01-07T18:44:47.488Z,42.50
2023-01-07T18:47:18.320Z,39.78
2023-01-07T18:49:50.374Z,40.70
2023-01-07T18:52:21.399Z,42.45
2023-01-07T18:54:52.319Z,43.67
2023-01-07T18:57:23.377Z,41.35
2023-01-07T18:59:54.195Z,41.85
2023-01-07T19:02:25.098Z,42.05
2023-01-07T19:04:57.009Z,41.38
2023-01-07T19:07:27.894Z,40.50
2023-01-07T19:09:58.442Z,43.05
2023-01-07T19:12:29.358Z,42.80
2023-01-07T19:14:59.771Z,42.42
2023-01-07T19:17:30.726Z,41.10
2023-01-07T19:20:02.709Z,41.65
2023-01-07T19:22:33.551Z,41.78
2023-01-07T19:25:04.222Z,42.35
2023-01-07T19:27:35.175Z,43.03
2023-01-07T19:30:06.737Z,42.55
2023-01-07T19:32:38.024Z,43.92
2023-01-07T19:35:10.953Z,48.60
2023-01-07T19:37:41.877Z,44.83
2023-01-07T19:40:14.227Z,48.03
2023-01-07T19:42:45.254Z,47.50
2023-01-07T19:45:15.923Z,49.00
2023-01-07T19:47:47.709Z,53.25
2023-01-07T19:50:20.106Z,49.92
2023-01-07T19:52:50.894Z,52.45
2023-01-07T19:55:22.710Z,52.80
2023-01-07T19:57:53.618Z,53.83
2023-01-07T20:00:24.399Z,51.25
2023-01-07T20:02:55.476Z,54.92
2023-01-07T20:05:29.067Z,52.60
2023-01-07T20:08:00.110Z,54.65
2023-01-07T20:10:30.775Z,56.15
2023-01-07T20:13:01.549Z,57.28
2023-01-07T20:15:32.142Z,59.35
2023-01-07T20:18:03.422Z,61.78
2023-01-07T20:20:35.551Z,60.38
2023-01-07T20:23:06.423Z,62.03
2023-01-07T20:25:37.285Z,58.05
2023-01-07T20:28:08.194Z,59.58
2023-01-07T20:30:40.614Z,64.75
2023-01-07T20:33:11.470Z,68.20
2023-01-07T20:35:43.411Z,69.50
2023-01-07T20:38:14.749Z,69.07
2023-01-07T20:40:45.387Z,69.88
2023-01-07T20:43:16.357Z,74.10
2023-01-07T20:45:47.653Z,72.80
2023-01-07T20:48:19.331Z,76.13
2023-01-07T20:50:51.515Z,73.13
2023-01-07T20:53:22.583Z,77.57
2023-01-07T20:55:58.538Z,75.95
2023-01-07T20:58:32.693Z,72.00
2023-01-07T21:01:04.826Z,70.32
2023-01-07T21:03:36.407Z,67.47
2023-01-07T21:06:10.311Z,68.03
2023-01-07T21:08:41.779Z,70.22
2023-01-07T21:11:15.252Z,66.40
2023-01-07T21:13:46.907Z,65.05
2023-01-07T21:16:17.994Z,66.70
2023-01-07T21:18:49.581Z,64.35
2023-01-07T21:21:25.520Z,68.22
2023-01-07T21:23:56.971Z,70.85
2023-01-07T21:26:27.820Z,72.45
2023-01-07T21:28:59.230Z,78.40
2023-01-07T21:31:30.138Z,77.63
2023-01-07T21:34:01.239Z,77.22
2023-01-07T21:36:33.454Z,76.47
2023-01-07T21:39:05.964Z,82.40
2023-01-07T21:41:36.895Z,75.20
2023-01-07T21:44:07.880Z,76.60
2023-01-07T21:46:38.313Z,77.53
2023-01-07T21:49:09.659Z,79.70
2023-01-07T21:51:41.512Z,78.88
2023-01-07T21:54:12.599Z,78.07
2023-01-07T21:56:43.040Z,78.28
2023-01-07T21:59:13.885Z,77.55
2023-01-07T22:01:44.587Z,78.43
2023-01-07T22:04:15.493Z,74.55
2023-01-07T22:06:47.706Z,77.55
2023-01-07T22:09:18.788Z,73.25
2023-01-07T22:11:49.268Z,71.20
2023-01-07T22:14:21.063Z,65.95
2023-01-07T22:16:51.571Z,66.75
2023-01-07T22:19:25.927Z,60.45
2023-01-07T22:21:57.939Z,60.08
2023-01-07T22:24:28.967Z,57.75
2023-01-07T22:26:59.524Z,60.63
2023-01-07T22:29:32.414Z,63.03
2023-01-07T22:32:02.857Z,59.08
2023-01-07T22:34:33.702Z,57.85
2023-01-07T22:37:10.561Z,59.85
2023-01-07T22:39:45.607Z,57.05
2023-01-07T22:42:21.701Z,56.92
2023-01-07T22:44:56.690Z,51.22
2023-01-07T22:47:31.957Z,47.58
2023-01-07T22:50:07.144Z,46.90
2023-01-07T22:52:40.424Z,49.10
2023-01-07T22:57:43.973Z,48.05
2023-01-07T23:00:39.014Z,53.47
2023-01-07T23:03:09.698Z,56.72
2023-01-07T23:05:40.650Z,61.55
2023-01-07T23:08:12.867Z,58.75
2023-01-07T23:10:44.183Z,56.57
2023-01-07T23:13:15.006Z,60.35
2023-01-07T23:15:46.061Z,61.33
2023-01-07T23:18:16.898Z,65.57
2023-01-07T23:20:47.679Z,69.22
2023-01-07T23:23:19.702Z,66.30
2023-01-07T23:25:53.161Z,64.22
2023-01-07T23:28:23.970Z,59.35
2023-01-07T23:30:54.785Z,60.13
2023-01-07T23:33:25.430Z,58.35
2023-01-07T23:36:04.095Z,63.33
2023-01-07T23:38:36.129Z,63.30
2023-01-07T23:41:09.292Z,68.10
2023-01-07T23:43:40.015Z,70.43
2023-01-07T23:46:11.610Z,65.47
2023-01-07T23:48:42.255Z,67.13
2023-01-07T23:51:15.345Z,71.00
2023-01-07T23:53:48.214Z,73.70
2023-01-07T23:56:21.660Z,68.57
2023-01-07T23:58:52.409Z,66.95
